createdAt,value
2018-04-29T00:01:53.241Z,13.00
2018-04-29T00:04:20.705Z,13.05
2018-04-29T00:06:48.149Z,13.82
2018-04-29T00:09:15.588Z,14.07
2018-04-29T00:11:43.048Z,13.80
2018-04-29T00:14:10.512Z,15.40
2018-04-29T00:16:37.949Z,13.68
2018-04-29T00:19:05.414Z,14.57
2018-04-29T00:21:32.846Z,14.18
2018-04-29T00:24:00.301Z,15.07
2018-04-29T00:26:27.792Z,14.43
2018-04-29T00:28:55.236Z,14.93
2018-04-29T00:31:22.724Z,14.82
2018-04-29T00:33:50.178Z,15.83
2018-04-29T00:36:17.619Z,15.20
2018-04-29T00:38:45.326Z,15.75
2018-04-29T00:41:12.824Z,15.80
2018-04-29T00:43:40.256Z,16.85
2018-04-29T00:46:07.695Z,16.63
2018-04-29T00:48:35.918Z,17.25
2018-04-29T00:51:03.369Z,16.90
2018-04-29T00:53:30.804Z,15.95
2018-04-29T00:55:58.241Z,16.67
2018-04-29T00:58:26.450Z,16.65
2018-04-29T01:00:53.892Z,15.60
2018-04-29T01:03:21.338Z,15.52
2018-04-29T01:05:49.562Z,16.42
2018-04-29T01:08:17.009Z,15.52
2018-04-29T01:10:44.451Z,16.10
2018-04-29T01:13:11.908Z,16.23
2018-04-29T01:15:39.332Z,16.73
2018-04-29T01:18:07.539Z,16.05
2018-04-29T01:20:34.985Z,16.65
2018-04-29T01:23:02.419Z,15.03
2018-04-29T01:25:30.633Z,14.77
2018-04-29T01:27:58.076Z,15.05
2018-04-29T01:30:25.549Z,15.40
2018-04-29T01:32:52.989Z,15.57
2018-04-29T01:35:20.484Z,15.20
2018-04-29T01:37:48.044Z,15.65
2018-04-29T01:40:15.481Z,14.70
2018-04-29T01:42:42.940Z,15.85
2018-04-29T01:45:10.380Z,14.65
2018-04-29T01:47:37.814Z,15.48
2018-04-29T01:50:05.301Z,15.10
2018-04-29T01:52:32.732Z,14.93
2018-04-29T01:55:00.199Z,15.60
2018-04-29T01:57:27.617Z,15.60
2018-04-29T01:59:55.823Z,16.10
2018-04-29T02:02:23.264Z,16.83
2018-04-29T02:04:50.742Z,16.80
2018-04-29T02:07:18.230Z,16.50
2018-04-29T02:09:45.679Z,17.10
2018-04-29T02:12:13.884Z,16.52
2018-04-29T02:14:42.105Z,15.52
2018-04-29T02:17:09.560Z,16.17
2018-04-29T02:19:37.017Z,14.77
2018-04-29T02:22:04.475Z,17.00
2018-04-29T02:24:31.912Z,17.08
2018-04-29T02:26:59.344Z,16.92
2018-04-29T02:29:27.558Z,17.35
2018-04-29T02:31:54.993Z,15.77
2018-04-29T02:34:22.428Z,16.33
2018-04-29T02:36:50.624Z,17.40
2018-04-29T02:39:18.080Z,17.52
2018-04-29T02:41:45.515Z,17.27
2018-04-29T02:44:13.736Z,16.23
2018-04-29T02:46:41.263Z,16.20
2018-04-29T02:49:09.461Z,16.97
2018-04-29T02:51:36.912Z,17.15
2018-04-29T02:54:04.343Z,17.33
2018-04-29T02:56:32.557Z,16.98
2018-04-29T02:58:59.992Z,17.30
2018-04-29T03:01:27.428Z,19.37
2018-04-29T03:03:55.636Z,17.02
2018-04-29T03:06:23.089Z,18.10
2018-04-29T03:08:50.576Z,18.40
2018-04-29T03:11:18.022Z,17.70
2018-04-29T03:13:45.485Z,18.15
2018-04-29T03:16:12.904Z,18.42
2018-04-29T03:18:40.352Z,18.90
2018-04-29T03:21:07.851Z,18.83
2018-04-29T03:23:35.293Z,17.87
2018-04-29T03:26:02.724Z,17.10
2018-04-29T03:28:30.172Z,17.92
2018-04-29T03:30:57.620Z,17.60
2018-04-29T03:33:25.816Z,19.70
2018-04-29T03:35:53.312Z,19.00
2018-04-29T03:38:20.744Z,18.40
2018-04-29T03:40:48.188Z,19.20
2018-04-29T03:43:15.620Z,19.05
2018-04-29T03:45:43.844Z,18.42
2018-04-29T03:48:11.279Z,18.87
2018-04-29T03:50:38.783Z,19.40
2018-04-29T03:53:06.144Z,19.85
2018-04-29T03:55:34.356Z,19.02
2018-04-29T03:58:13.752Z,20.12
2018-04-29T04:00:53.152Z,19.10
2018-04-29T04:03:32.783Z,18.52
2018-04-29T04:06:00.217Z,19.25
2018-04-29T04:08:27.649Z,19.20
2018-04-29T04:10:55.865Z,18.65
2018-04-29T04:13:23.323Z,18.30
2018-04-29T04:15:50.801Z,17.80
2018-04-29T04:18:18.256Z,19.58
2018-04-29T04:20:45.697Z,18.83
2018-04-29T04:23:13.153Z,18.45
2018-04-29T04:25:40.620Z,19.63
2018-04-29T04:28:08.067Z,18.33
2018-04-29T04:30:35.502Z,19.27
2018-04-29T04:33:02.937Z,18.62
2018-04-29T04:35:31.147Z,18.55
2018-04-29T04:37:58.571Z,19.45
2018-04-29T04:40:26.021Z,17.92
2018-04-29T04:42:53.452Z,18.12
2018-04-29T04:45:20.886Z,19.52
2018-04-29T04:47:48.325Z,18.37
2018-04-29T04:50:15.764Z,18.10
2018-04-29T04:52:43.203Z,19.27
2018-04-29T04:55:11.417Z,19.17
2018-04-29T04:57:38.844Z,18.30
2018-04-29T05:00:06.280Z,17.92
2018-04-29T05:02:34.524Z,18.00
2018-04-29T05:05:01.957Z,18.50
2018-04-29T05:07:29.391Z,18.60
2018-04-29T05:09:56.884Z,17.37
2018-04-29T05:12:24.417Z,19.27
2018-04-29T05:14:51.852Z,18.77
2018-04-29T05:17:19.293Z,18.45
2018-04-29T05:19:47.505Z,19.20
2018-04-29T05:22:14.996Z,18.70
2018-04-29T05:24:42.389Z,17.70
2018-04-29T05:27:10.596Z,17.62
2018-04-29T05:29:38.050Z,16.80
2018-04-29T05:32:05.473Z,17.40
2018-04-29T05:34:33.675Z,18.10
2018-04-29T05:37:01.113Z,17.50
2018-04-29T05:39:28.547Z,18.23
2018-04-29T05:41:56.752Z,18.10
2018-04-29T05:44:24.228Z,16.30
2018-04-29T05:46:51.676Z,16.42
2018-04-29T05:49:19.107Z,16.90
2018-04-29T05:51:46.552Z,16.30
2018-04-29T05:54:14.752Z,15.35
2018-04-29T05:56:42.197Z,15.80
2018-04-29T05:59:11.232Z,15.70
2018-04-29T06:01:38.680Z,15.90
2018-04-29T06:04:06.145Z,14.82
2018-04-29T06:06:33.691Z,13.50
2018-04-29T06:09:01.038Z,11.20
2018-04-29T06:11:28.500Z,13.30
2018-04-29T06:13:55.996Z,12.37
2018-04-29T06:16:23.423Z,12.70
2018-04-29T06:18:50.881Z,13.00
2018-04-29T06:21:18.326Z,14.77
2018-04-29T06:23:45.881Z,14.15
2018-04-29T06:26:13.386Z,14.23
2018-04-29T06:28:40.779Z,15.00
2018-04-29T06:31:08.240Z,15.18
2018-04-29T06:33:35.688Z,14.90
2018-04-29T06:36:03.149Z,14.95
2018-04-29T06:38:30.593Z,13.82
2018-04-29T06:40:58.076Z,13.73
2018-04-29T06:43:25.512Z,13.80
2018-04-29T06:45:52.980Z,13.50
2018-04-29T06:48:20.425Z,13.60
2018-04-29T06:50:47.868Z,14.27
2018-04-29T06:53:15.326Z,14.00
2018-04-29T06:55:42.798Z,14.20
2018-04-29T06:58:10.264Z,14.20
2018-04-29T07:00:37.714Z,14.60
2018-04-29T07:03:05.253Z,15.10
2018-04-29T07:05:32.688Z,14.60
2018-04-29T07:08:00.393Z,14.60
2018-04-29T07:10:28.528Z,14.67
2018-04-29T07:12:55.976Z,13.43
2018-04-29T07:15:23.421Z,13.25
2018-04-29T07:17:51.616Z,13.00
2018-04-29T07:20:19.072Z,12.68
2018-04-29T07:22:46.493Z,12.70
2018-04-29T07:25:14.696Z,12.77
2018-04-29T07:27:42.152Z,11.90
2018-04-29T07:30:09.607Z,12.10
2018-04-29T07:32:37.044Z,12.23
2018-04-29T07:35:05.356Z,12.95
2018-04-29T07:37:32.845Z,13.25
2018-04-29T07:40:00.298Z,13.40
2018-04-29T07:42:27.732Z,14.20
2018-04-29T07:44:55.212Z,13.07
2018-04-29T07:47:22.664Z,13.40
2018-04-29T07:49:50.116Z,12.90
2018-04-29T07:52:17.711Z,13.25
2018-04-29T07:54:45.001Z,13.73
2018-04-29T07:57:12.436Z,14.57
2018-04-29T07:59:40.632Z,14.55
2018-04-29T08:02:08.097Z,13.98
2018-04-29T08:04:35.568Z,13.62
2018-04-29T08:07:03.031Z,12.90
2018-04-29T08:09:30.473Z,12.77
2018-04-29T08:11:58.022Z,14.50
2018-04-29T08:14:25.437Z,13.90
2018-04-29T08:16:53.679Z,13.70
2018-04-29T08:19:21.105Z,13.23
2018-04-29T08:21:48.560Z,12.93
2018-04-29T08:24:16.019Z,12.70
2018-04-29T08:26:43.489Z,12.95
2018-04-29T08:29:10.941Z,12.70
2018-04-29T08:31:38.403Z,12.73
2018-04-29T08:34:05.849Z,13.30
2018-04-29T08:36:33.281Z,12.75
2018-04-29T08:39:00.732Z,12.00
2018-04-29T08:41:29.027Z,13.20
2018-04-29T08:43:56.453Z,12.80
2018-04-29T08:46:24.674Z,12.15
2018-04-29T08:48:52.128Z,12.37
2018-04-29T08:51:19.573Z,12.88
2018-04-29T08:53:47.028Z,13.20
2018-04-29T08:56:14.469Z,12.50
2018-04-29T08:58:41.914Z,11.45
2018-04-29T09:01:10.128Z,11.80
2018-04-29T09:03:37.606Z,11.48
2018-04-29T09:06:05.018Z,11.20
2018-04-29T09:08:32.444Z,12.10
2018-04-29T09:11:00.762Z,12.52
2018-04-29T09:13:28.209Z,12.50
2018-04-29T09:15:55.674Z,10.80
2018-04-29T09:18:23.160Z,11.43
2018-04-29T09:20:50.604Z,10.30
2018-04-29T09:23:18.060Z,10.60
2018-04-29T09:25:45.498Z,11.05
2018-04-29T09:28:12.956Z,11.20
2018-04-29T09:30:40.414Z,10.70
2018-04-29T09:33:07.890Z,9.73
2018-04-29T09:35:35.332Z,10.27
2018-04-29T09:38:02.794Z,11.40
2018-04-29T09:40:30.231Z,10.95
2018-04-29T09:42:57.680Z,11.60
2018-04-29T09:45:25.143Z,12.20
2018-04-29T09:47:52.719Z,11.25
2018-04-29T09:50:20.182Z,10.00
2018-04-29T09:52:47.621Z,9.73
2018-04-29T09:55:15.121Z,9.02
2018-04-29T09:57:42.505Z,8.82
2018-04-29T10:00:10.700Z,8.18
2018-04-29T10:02:43.901Z,9.90
2018-04-29T10:05:11.320Z,10.60
2018-04-29T10:07:39.525Z,8.93
2018-04-29T10:10:06.959Z,9.10
2018-04-29T10:12:35.159Z,8.30
2018-04-29T10:15:02.600Z,8.90
2018-04-29T10:17:30.080Z,9.60
2018-04-29T10:19:57.526Z,10.23
2018-04-29T10:22:24.958Z,9.93
2018-04-29T10:24:52.396Z,10.80
2018-04-29T10:27:20.593Z,10.50
2018-04-29T10:29:48.042Z,8.65
2018-04-29T10:32:16.238Z,9.50
2018-04-29T10:34:43.682Z,9.50
2018-04-29T10:37:11.116Z,9.40
2018-04-29T10:39:39.340Z,9.60
2018-04-29T10:42:06.777Z,9.77
2018-04-29T10:44:34.209Z,8.87
2018-04-29T10:47:02.453Z,9.82
2018-04-29T10:49:29.888Z,9.60
2018-04-29T10:51:57.323Z,9.23
2018-04-29T10:54:24.756Z,8.73
2018-04-29T10:56:52.200Z,8.20
2018-04-29T10:59:20.388Z,7.80
2018-04-29T11:01:47.836Z,8.65
2018-04-29T11:04:16.069Z,8.38
2018-04-29T11:06:43.515Z,8.27
2018-04-29T11:09:10.961Z,9.60
2018-04-29T11:11:38.385Z,8.87
2018-04-29T11:14:06.684Z,10.45
2018-04-29T11:16:34.141Z,9.43
2018-04-29T11:19:01.594Z,10.57
2018-04-29T11:21:29.034Z,9.90
2018-04-29T11:23:56.542Z,10.00
2018-04-29T11:26:23.973Z,9.50
2018-04-29T11:28:51.404Z,9.18
2018-04-29T11:31:18.873Z,10.30
2018-04-29T11:33:46.372Z,9.82
2018-04-29T11:36:13.757Z,8.63
2018-04-29T11:38:41.964Z,9.20
2018-04-29T11:41:09.408Z,10.45
2018-04-29T11:43:36.877Z,10.10
2018-04-29T11:46:04.377Z,9.15
2018-04-29T11:48:31.813Z,9.20
2018-04-29T11:50:59.259Z,11.07
2018-04-29T11:53:26.735Z,10.23
2018-04-29T11:55:54.192Z,9.77
2018-04-29T11:58:21.624Z,10.05
2018-04-29T12:00:49.075Z,9.85
2018-04-29T12:03:16.509Z,10.68
2018-04-29T12:05:44.018Z,9.20
2018-04-29T12:08:11.448Z,8.05
2018-04-29T12:10:38.880Z,8.80
2018-04-29T12:13:06.323Z,8.95
2018-04-29T12:15:34.534Z,9.38
2018-04-29T12:18:01.970Z,9.20
2018-04-29T12:20:29.404Z,8.37
2018-04-29T12:22:57.694Z,9.25
2018-04-29T12:25:25.128Z,9.55
2018-04-29T12:27:53.324Z,9.75
2018-04-29T12:30:20.811Z,9.20
2018-04-29T12:32:48.260Z,9.88
2018-04-29T12:35:15.705Z,9.60
2018-04-29T12:37:43.173Z,8.88
2018-04-29T12:40:10.626Z,8.77
2018-04-29T12:42:38.044Z,8.35
2018-04-29T12:45:06.256Z,9.43
2018-04-29T12:47:33.717Z,9.57
2018-04-29T12:50:01.275Z,10.40
2018-04-29T12:52:28.709Z,10.60
2018-04-29T12:54:56.137Z,8.85
2018-04-29T12:57:24.363Z,8.55
2018-04-29T12:59:51.796Z,9.95
2018-04-29T13:02:19.219Z,9.20
2018-04-29T13:04:46.674Z,8.98
2018-04-29T13:07:14.100Z,9.50
2018-04-29T13:09:41.540Z,10.77
2018-04-29T13:12:09.013Z,10.70
2018-04-29T13:14:36.632Z,10.50
2018-04-29T13:17:04.850Z,10.52
2018-04-29T13:19:32.287Z,10.05
2018-04-29T13:21:59.719Z,10.20
2018-04-29T13:24:27.156Z,9.75
2018-04-29T13:26:55.393Z,9.70
2018-04-29T13:29:22.851Z,9.20
2018-04-29T13:31:50.311Z,10.40
2018-04-29T13:34:17.784Z,9.95
2018-04-29T13:36:45.224Z,9.77
2018-04-29T13:39:12.782Z,9.15
2018-04-29T13:41:40.241Z,9.95
2018-04-29T13:44:07.685Z,9.73
2018-04-29T13:46:35.133Z,9.50
2018-04-29T13:49:02.597Z,9.90
2018-04-29T13:51:30.067Z,10.07
2018-04-29T13:53:57.510Z,10.70
2018-04-29T13:56:24.948Z,9.38
2018-04-29T13:58:52.397Z,10.18
2018-04-29T14:01:19.819Z,10.80
2018-04-29T14:03:48.030Z,10.15
2018-04-29T14:06:15.488Z,10.88
2018-04-29T14:08:42.916Z,10.75
2018-04-29T14:11:11.232Z,10.60
2018-04-29T14:13:38.696Z,10.53
2018-04-29T14:16:06.264Z,10.90
2018-04-29T14:18:34.379Z,10.60
2018-04-29T14:21:02.584Z,11.40
2018-04-29T14:23:30.144Z,11.50
2018-04-29T14:25:57.585Z,12.13
2018-04-29T14:28:25.026Z,11.68
2018-04-29T14:30:52.509Z,12.10
2018-04-29T14:33:19.989Z,11.90
2018-04-29T14:35:47.427Z,10.82
2018-04-29T14:38:14.871Z,12.37
2018-04-29T14:40:42.316Z,12.43
2018-04-29T14:43:09.790Z,12.15
2018-04-29T14:45:37.210Z,13.47
2018-04-29T14:48:05.432Z,12.80
2018-04-29T14:50:32.978Z,12.60
2018-04-29T14:53:00.415Z,12.85
2018-04-29T14:55:27.994Z,12.70
2018-04-29T14:57:55.469Z,12.82
2018-04-29T15:00:22.929Z,14.70
2018-04-29T15:02:50.356Z,14.20
2018-04-29T15:05:17.869Z,13.97
2018-04-29T15:07:45.301Z,14.10
2018-04-29T15:10:12.749Z,12.93
2018-04-29T15:12:40.189Z,13.70
2018-04-29T15:15:07.660Z,12.88
2018-04-29T15:17:35.203Z,13.30
2018-04-29T15:20:02.689Z,14.60
2018-04-29T15:22:30.124Z,15.23
2018-04-29T15:24:57.601Z,15.00
2018-04-29T15:27:25.161Z,14.95
2018-04-29T15:29:52.689Z,16.08
2018-04-29T15:32:20.217Z,17.50
2018-04-29T15:34:47.634Z,16.70
2018-04-29T15:37:15.073Z,17.10
2018-04-29T15:39:42.516Z,16.20
2018-04-29T15:42:09.964Z,16.27
2018-04-29T15:44:37.389Z,17.25
2018-04-29T15:47:05.600Z,17.20
2018-04-29T15:49:33.045Z,17.85
2018-04-29T15:52:00.480Z,17.40
2018-04-29T15:54:28.691Z,18.48
2018-04-29T15:56:56.125Z,19.60
2018-04-29T15:59:23.569Z,17.90
2018-04-29T16:01:51.788Z,19.00
2018-04-29T16:04:19.264Z,18.90
2018-04-29T16:06:46.704Z,18.40
2018-04-29T16:09:14.193Z,18.50
2018-04-29T16:11:41.658Z,19.37
2018-04-29T16:14:09.088Z,18.15
2018-04-29T16:16:36.535Z,17.60
2018-04-29T16:19:03.976Z,17.30
2018-04-29T16:21:31.424Z,16.30
2018-04-29T16:23:58.903Z,16.62
2018-04-29T16:26:26.356Z,17.35
2018-04-29T16:28:53.787Z,16.50
2018-04-29T16:31:21.228Z,16.62
2018-04-29T16:33:48.664Z,16.50
2018-04-29T16:36:16.876Z,16.80
2018-04-29T16:38:44.306Z,16.67
2018-04-29T16:41:12.532Z,15.90
2018-04-29T16:43:39.981Z,14.90
2018-04-29T16:46:07.412Z,15.27
2018-04-29T16:48:34.844Z,15.60
2018-04-29T16:51:03.153Z,17.55
2018-04-29T16:53:30.578Z,16.75
2018-04-29T16:55:58.780Z,16.65
2018-04-29T16:58:26.233Z,16.95
2018-04-29T17:00:53.668Z,16.60
2018-04-29T17:03:21.860Z,18.00
2018-04-29T17:05:49.310Z,18.02
2018-04-29T17:08:16.801Z,18.90
2018-04-29T17:10:44.339Z,18.87
2018-04-29T17:13:11.769Z,19.13
2018-04-29T17:15:39.217Z,20.08
2018-04-29T17:18:07.472Z,19.77
2018-04-29T17:20:34.983Z,20.25
2018-04-29T17:23:02.420Z,21.10
2018-04-29T17:25:29.895Z,22.65
2018-04-29T17:27:57.331Z,22.70
2018-04-29T17:30:24.824Z,23.33
2018-04-29T17:32:52.384Z,24.27
2018-04-29T17:35:19.844Z,24.08
2018-04-29T17:37:47.284Z,24.77
2018-04-29T17:40:14.760Z,23.48
2018-04-29T17:42:42.220Z,23.90
2018-04-29T17:45:09.658Z,24.30
2018-04-29T17:47:37.104Z,24.00
2018-04-29T17:50:04.552Z,23.90
2018-04-29T17:52:32.017Z,25.60
2018-04-29T17:54:59.538Z,24.98
2018-04-29T17:57:27.048Z,25.03
2018-04-29T17:59:54.592Z,23.80
2018-04-29T18:02:22.047Z,23.98
2018-04-29T18:04:49.473Z,23.33
2018-04-29T18:07:17.773Z,23.23
2018-04-29T18:09:45.133Z,23.62
2018-04-29T18:12:12.588Z,24.25
2018-04-29T18:14:40.253Z,23.33
2018-04-29T18:17:07.694Z,25.10
2018-04-29T18:19:35.165Z,24.40
2018-04-29T18:22:02.616Z,25.83
2018-04-29T18:24:30.092Z,26.25
2018-04-29T18:26:57.536Z,26.83
2018-04-29T18:29:24.980Z,26.85
2018-04-29T18:31:52.464Z,27.62
2018-04-29T18:34:19.936Z,26.15
2018-04-29T18:36:47.464Z,26.33
2018-04-29T18:39:15.022Z,28.20
2018-04-29T18:41:42.505Z,26.98
2018-04-29T18:44:09.951Z,28.10
2018-04-29T18:46:37.412Z,27.02
2018-04-29T18:49:04.864Z,27.50
2018-04-29T18:51:32.431Z,26.98
2018-04-29T18:53:59.760Z,26.85
2018-04-29T18:56:27.197Z,27.75
2018-04-29T18:58:54.643Z,26.73
2018-04-29T19:01:22.080Z,28.30
2018-04-29T19:03:50.300Z,27.45
2018-04-29T19:06:17.787Z,26.30
2018-04-29T19:08:45.236Z,26.70
2018-04-29T19:11:12.815Z,26.30
2018-04-29T19:13:40.357Z,26.62
2018-04-29T19:16:07.800Z,27.20
2018-04-29T19:18:35.351Z,27.97
2018-04-29T19:21:02.830Z,27.58
2018-04-29T19:23:30.289Z,26.80
2018-04-29T19:25:57.756Z,27.13
2018-04-29T19:28:25.203Z,27.20
2018-04-29T19:30:52.628Z,27.52
2018-04-29T19:33:20.085Z,27.58
2018-04-29T19:35:47.539Z,26.90
2018-04-29T19:38:15.013Z,26.45
2018-04-29T19:40:42.471Z,28.35
2018-04-29T19:43:09.950Z,27.48
2018-04-29T19:45:37.424Z,27.17
2018-04-29T19:48:05.636Z,27.42
2018-04-29T19:50:33.081Z,26.08
2018-04-29T19:53:00.516Z,26.40
2018-04-29T19:55:28.767Z,25.73
2018-04-29T19:57:56.314Z,27.30
2018-04-29T20:00:23.757Z,25.70
2018-04-29T20:02:51.191Z,27.23
2018-04-29T20:05:18.636Z,26.67
2018-04-29T20:07:46.132Z,27.00
2018-04-29T20:10:13.574Z,26.12
2018-04-29T20:12:41.040Z,26.90
2018-04-29T20:15:08.477Z,25.98
2018-04-29T20:17:35.924Z,27.33
2018-04-29T20:20:03.364Z,26.65
2018-04-29T20:22:30.837Z,27.73
2018-04-29T20:24:58.300Z,26.17
2018-04-29T20:27:25.788Z,26.67
2018-04-29T20:29:53.236Z,26.73
2018-04-29T20:35:17.281Z,27.27
2018-04-29T20:37:45.505Z,28.48
2018-04-29T20:40:12.980Z,27.15
2018-04-29T20:42:40.431Z,28.23
2018-04-29T20:45:07.882Z,30.20
2018-04-29T20:47:35.319Z,28.58
2018-04-29T20:50:02.828Z,28.25
2018-04-29T20:52:30.301Z,29.13
2018-04-29T20:54:57.843Z,29.80
2018-04-29T20:57:25.279Z,28.55
2018-04-29T20:59:52.843Z,29.70
2018-04-29T21:02:20.327Z,29.33
2018-04-29T21:04:47.771Z,29.50
2018-04-29T21:07:15.196Z,30.52
2018-04-29T21:09:42.729Z,29.85
2018-04-29T21:12:10.181Z,30.00
2018-04-29T21:14:37.628Z,30.60
2018-04-29T21:17:05.079Z,29.08
2018-04-29T21:19:32.600Z,30.08
2018-04-29T21:22:00.798Z,29.42
2018-04-29T21:24:28.287Z,30.10
2018-04-29T21:26:55.717Z,30.50
2018-04-29T21:29:23.171Z,30.55
2018-04-29T21:31:50.619Z,29.90
2018-04-29T21:34:18.048Z,30.35
2018-04-29T21:36:46.261Z,31.10
2018-04-29T21:39:13.707Z,31.80
2018-04-29T21:41:41.485Z,30.23
2018-04-29T21:44:08.928Z,30.23
2018-04-29T21:46:36.352Z,30.60
2018-04-29T21:49:04.579Z,32.97
2018-04-29T21:51:32.065Z,30.02
2018-04-29T21:53:59.607Z,29.27
2018-04-29T21:56:27.054Z,28.50
2018-04-29T21:58:54.607Z,30.50
2018-04-29T22:01:22.076Z,30.50
2018-04-29T22:03:49.525Z,29.27
2018-04-29T22:06:16.961Z,28.10
2018-04-29T22:08:44.467Z,29.60
2018-04-29T22:11:12.020Z,28.60
2018-04-29T22:13:39.457Z,29.08
2018-04-29T22:16:06.940Z,27.80
2018-04-29T22:18:34.393Z,29.40
2018-04-29T22:21:01.946Z,27.83
2018-04-29T22:23:29.497Z,27.67
2018-04-29T22:25:56.965Z,28.20
2018-04-29T22:28:24.379Z,27.50
2018-04-29T22:30:51.942Z,27.62
2018-04-29T22:33:19.428Z,26.60
2018-04-29T22:35:46.962Z,27.90
2018-04-29T22:38:14.441Z,26.25
2018-04-29T22:40:41.890Z,27.20
2018-04-29T22:43:09.431Z,26.50
2018-04-29T22:45:36.869Z,25.85
2018-04-29T22:48:04.293Z,26.00
2018-04-29T22:50:32.496Z,25.08
2018-04-29T22:52:59.928Z,24.83
2018-04-29T22:55:28.140Z,23.25
2018-04-29T22:57:55.617Z,25.65
2018-04-29T23:00:23.159Z,24.67
2018-04-29T23:02:50.576Z,23.30
2018-04-29T23:05:18.804Z,24.85
2018-04-29T23:07:46.236Z,25.67
2018-04-29T23:10:13.676Z,24.77
2018-04-29T23:12:41.124Z,23.70
2018-04-29T23:15:09.348Z,24.50
2018-04-29T23:17:36.808Z,22.37
2018-04-29T23:20:04.330Z,24.05
2018-04-29T23:22:31.771Z,21.90
2018-04-29T23:24:59.978Z,23.98
2018-04-29T23:27:27.416Z,20.98
2018-04-29T23:29:54.860Z,20.70
2018-04-29T23:32:22.305Z,20.20
2018-04-29T23:34:50.525Z,19.95
2018-04-29T23:37:17.984Z,21.30
2018-04-29T23:39:45.423Z,20.58
2018-04-29T23:42:12.864Z,20.95
2018-04-29T23:44:40.316Z,20.20
2018-04-29T23:47:08.513Z,19.58
2018-04-29T23:49:35.988Z,19.77
2018-04-29T23:52:03.451Z,21.80
2018-04-29T23:54:30.885Z,21.67
2018-04-29T23:56:58.330Z,19.23
2018-04-29T23:59:25.770Z,18.52
